Time;durP1;ratioP1;P1;durP2;ratioP2;P2;SDS_P1;SDS_P2;PMS_P1;PMS_P2;Temp;Humidity;BMP_temperature;BMP_pressure;BME280_temperature;BME280_humidity;BME280_pressure;Samples;Min_cycle;Max_cycle;Signal;HPM_P1;HPM_P2
2021/12/18 00:02:15;;;;;;;70.80;65.50;;;;;;;9.67;100.00;104097.61;1867398;73;39615;-75
2021/12/18 00:08:03;;;;;;;62.83;57.73;;;;;;;9.74;100.00;104092.96;1837128;76;85319;-74
2021/12/18 00:16:53;;;;;;;64.63;60.03;;;;;;;9.66;100.00;104087.03;1860226;75;86791;-71
2021/12/18 00:19:26;;;;;;;59.07;54.57;;;;;;;9.65;100.00;104092.24;1796079;75;936802;-78
2021/12/18 00:21:56;;;;;;;62.60;58.37;;;;;;;9.62;100.00;104096.82;1815182;76;936864;-77
2021/12/18 00:24:27;;;;;;;63.27;58.67;;;;;;;9.59;100.00;104091.64;1813888;76;938861;-71
2021/12/18 00:30:12;;;;;;;62.50;57.93;;;;;;;9.67;100.00;104086.50;1876935;74;86564;-77
2021/12/18 00:35:59;;;;;;;63.37;58.40;;;;;;;9.71;100.00;104081.73;1882514;74;86458;-75
2021/12/18 00:42:01;;;;;;;58.67;54.03;;;;;;;9.73;100.00;104078.74;1897949;75;86172;-73
2021/12/18 00:47:37;;;;;;;59.70;55.20;;;;;;;9.77;100.00;104080.05;1908138;72;86784;-74
2021/12/18 00:50:12;;;;;;;58.17;53.58;;;;;;;9.64;100.00;104078.55;1864494;74;936744;-76
2021/12/18 00:55:57;;;;;;;56.73;52.33;;;;;;;9.68;100.00;104068.23;1883093;74;86237;-77
2021/12/18 01:01:40;;;;;;;56.30;52.20;;;;;;;9.71;100.00;104062.31;1909668;74;86426;-70
2021/12/18 01:07:26;;;;;;;56.70;52.63;;;;;;;9.73;100.00;104072.66;1825111;77;86284;-77
2021/12/18 01:13:14;;;;;;;54.67;50.57;;;;;;;9.67;100.00;104083.73;1796393;78;86898;-71
2021/12/18 01:24:58;;;;;;;56.00;51.83;;;;;;;9.71;100.00;104080.87;1882136;74;86494;-71
2021/12/18 01:30:41;;;;;;;55.30;51.20;;;;;;;9.70;100.00;104082.79;1812895;76;86488;-78
2021/12/18 01:36:27;;;;;;;56.33;52.33;;;;;;;9.66;100.00;104080.61;1867372;75;86175;-73
2021/12/18 01:42:45;;;;;;;54.33;50.37;;;;;;;9.66;100.00;104073.67;1892109;74;86902;-76
2021/12/18 01:54:22;;;;;;;55.33;51.27;;;;;;;9.69;100.00;104080.20;1983324;71;39786;-74
2021/12/18 02:00:16;;;;;;;55.77;51.77;;;;;;;9.70;100.00;104074.46;1830909;76;86434;-78
2021/12/18 02:06:04;;;;;;;55.27;51.20;;;;;;;9.80;100.00;104065.76;1825929;76;85666;-77
2021/12/18 02:11:48;;;;;;;54.73;50.77;;;;;;;9.79;100.00;104065.45;1791631;79;86217;-71
2021/12/18 02:23:49;;;;;;;58.43;54.13;;;;;;;9.78;100.00;104067.89;1886621;74;86969;-78
2021/12/18 02:29:36;;;;;;;61.07;56.47;;;;;;;9.75;100.00;104077.50;1908498;73;86551;-75
2021/12/18 02:35:29;;;;;;;57.70;53.23;;;;;;;9.76;100.00;104079.19;1984833;71;40023;-75
2021/12/18 02:41:28;;;;;;;59.97;55.50;;;;;;;9.75;100.00;104066.92;1922517;71;39650;-71
2021/12/18 02:50:19;;;;;;;61.40;56.70;;;;;;;9.78;100.00;104057.66;1982859;69;39651;-73
2021/12/18 02:52:49;;;;;;;61.23;56.50;;;;;;;9.75;100.00;104073.86;1917042;72;934900;-74
2021/12/18 02:55:19;;;;;;;61.57;56.87;;;;;;;9.73;100.00;104073.19;1909248;72;938814;-74
2021/12/18 02:57:50;;;;;;;62.80;58.10;;;;;;;9.73;100.00;104072.66;1927125;73;936773;-75
2021/12/18 03:00:22;;;;;;;63.40;58.60;;;;;;;9.71;100.00;104072.55;1915592;72;938993;-75
2021/12/18 03:02:52;;;;;;;63.00;58.00;;;;;;;9.76;100.00;104068.61;1920416;73;936584;-75
2021/12/18 03:05:28;;;;;;;65.27;60.20;;;;;;;9.78;100.00;104069.28;1921350;72;938700;-74
2021/12/18 03:08:01;;;;;;;65.77;60.67;;;;;;;9.75;100.00;104070.56;1932868;72;936737;-75
2021/12/18 03:19:25;;;;;;;65.43;60.23;;;;;;;9.69;100.00;104071.34;1911496;73;938803;-75
2021/12/18 03:24:31;;;;;;;65.13;60.03;;;;;;;9.62;100.00;104073.75;1838487;74;938576;-74
2021/12/18 03:30:16;;;;;;;64.47;59.13;;;;;;;9.74;100.00;104063.81;1986607;71;40740;-74
2021/12/18 03:36:04;;;;;;;67.67;62.17;;;;;;;9.70;100.00;104068.91;1846687;75;87031;-77
2021/12/18 03:41:48;;;;;;;66.37;61.00;;;;;;;9.69;100.00;104063.55;1869569;75;86484;-73
2021/12/18 03:47:33;;;;;;;65.63;60.13;;;;;;;9.69;100.00;104067.72;1907149;72;86649;-71
2021/12/18 03:53:17;;;;;;;69.70;64.10;;;;;;;9.68;100.00;104070.16;1986014;71;39537;-75
2021/12/18 03:59:01;;;;;;;72.00;65.97;;;;;;;9.67;100.00;104068.45;1835419;75;85419;-76
2021/12/18 04:04:47;;;;;;;71.20;65.57;;;;;;;9.69;100.00;104067.19;1868939;74;86209;-77
2021/12/18 04:10:32;;;;;;;72.23;66.07;;;;;;;9.60;100.00;104069.77;1915073;74;87015;-71
2021/12/18 04:16:18;;;;;;;71.83;65.63;;;;;;;9.57;100.00;104066.02;1976680;70;39574;-74
2021/12/18 04:22:05;;;;;;;73.27;67.03;;;;;;;9.63;100.00;104066.59;1831204;76;85548;-73
2021/12/18 04:27:49;;;;;;;75.63;69.07;;;;;;;9.60;100.00;104062.84;1903042;74;86279;-74
2021/12/18 04:33:32;;;;;;;72.27;65.87;;;;;;;9.67;100.00;104067.91;1939823;73;85505;-75
2021/12/18 04:39:16;;;;;;;77.00;70.20;;;;;;;9.53;100.00;104071.64;1976494;71;39565;-74
2021/12/18 04:45:01;;;;;;;75.00;68.50;;;;;;;9.56;100.00;104068.45;1836285;76;86328;-74
2021/12/18 04:50:45;;;;;;;74.93;68.73;;;;;;;9.54;100.00;104076.14;1880488;74;86547;-78
2021/12/18 04:56:29;;;;;;;70.70;64.60;;;;;;;9.53;100.00;104071.13;1916510;74;85969;-78
2021/12/18 05:02:19;;;;;;;70.20;64.20;;;;;;;9.53;100.00;104069.73;1928121;71;47544;-77
2021/12/18 05:08:05;;;;;;;69.13;63.20;;;;;;;9.51;100.00;104065.42;1816048;76;86528;-70
2021/12/18 05:13:52;;;;;;;69.27;63.17;;;;;;;9.53;100.00;104074.42;1909278;74;86572;-74
2021/12/18 05:19:36;;;;;;;68.20;62.33;;;;;;;9.46;100.00;104071.56;1914543;74;86120;-74
2021/12/18 05:25:20;;;;;;;64.60;59.17;;;;;;;9.42;100.00;104067.48;1977557;71;39561;-74
2021/12/18 05:31:03;;;;;;;63.13;57.83;;;;;;;9.45;100.00;104067.10;1844848;76;86728;-71
2021/12/18 05:37:13;;;;;;;64.17;58.47;;;;;;;9.46;100.00;104083.19;1871631;75;86420;-74
2021/12/18 05:42:39;;;;;;;68.73;62.93;;;;;;;9.45;100.00;104080.11;1913727;74;86640;-77
2021/12/18 05:48:25;;;;;;;69.83;63.63;;;;;;;9.42;100.00;104074.41;1820032;78;86493;-74
2021/12/18 05:54:09;;;;;;;68.77;62.47;;;;;;;9.43;100.00;104081.69;1982298;69;85922;-71
2021/12/18 05:59:53;;;;;;;68.47;62.43;;;;;;;9.42;100.00;104077.71;1807985;78;86202;-71
2021/12/18 06:05:37;;;;;;;72.30;65.70;;;;;;;9.43;100.00;104083.60;1909860;74;86390;-78
2021/12/18 06:11:23;;;;;;;72.03;65.60;;;;;;;9.45;100.00;104088.44;1926454;70;39809;-71
2021/12/18 06:17:07;;;;;;;72.57;65.87;;;;;;;9.52;100.00;104090.20;1836832;76;86230;-77
2021/12/18 06:22:51;;;;;;;71.63;65.13;;;;;;;9.48;100.00;104089.42;1893286;74;86071;-78
2021/12/18 06:28:36;;;;;;;72.13;65.73;;;;;;;9.45;100.00;104088.44;1933220;73;86398;-71
2021/12/18 06:34:20;;;;;;;67.90;61.70;;;;;;;9.49;100.00;104089.23;1947419;71;39596;-78
2021/12/18 06:40:06;;;;;;;67.87;61.53;;;;;;;9.46;100.00;104083.19;1846713;76;86553;-74
2021/12/18 06:45:51;;;;;;;68.47;62.17;;;;;;;9.48;100.00;104076.93;1870110;74;86406;-70
2021/12/18 06:51:35;;;;;;;70.37;63.67;;;;;;;9.43;100.00;104069.73;1904954;74;85458;-70
2021/12/18 06:57:22;;;;;;;72.70;65.97;;;;;;;9.49;100.00;104077.27;1947808;71;39540;-74
2021/12/18 07:03:06;;;;;;;73.77;66.97;;;;;;;9.52;100.00;104072.70;1883962;74;86318;-73
2021/12/18 07:08:50;;;;;;;68.93;62.97;;;;;;;9.49;100.00;104089.75;1873614;74;86408;-74
2021/12/18 07:14:34;;;;;;;68.40;62.20;;;;;;;9.57;100.00;104090.47;1915615;73;86747;-78
2021/12/18 07:20:19;;;;;;;68.73;62.60;;;;;;;9.53;100.00;104092.45;1980687;71;39590;-72
2021/12/18 07:26:03;;;;;;;71.87;65.37;;;;;;;9.58;100.00;104087.17;1847223;76;86588;-75
2021/12/18 07:31:45;;;;;;;69.83;63.80;;;;;;;9.58;100.00;104088.56;1872343;75;86079;-77
2021/12/18 07:37:31;;;;;;;67.03;61.37;;;;;;;9.48;100.00;104094.97;1910463;74;86431;-74
2021/12/18 07:43:15;;;;;;;65.77;59.97;;;;;;;9.53;100.00;104086.91;1982073;71;39499;-75
2021/12/18 07:48:59;;;;;;;64.93;59.27;;;;;;;9.51;100.00;104095.42;1893476;74;85556;-75
2021/12/18 07:54:44;;;;;;;68.00;61.87;;;;;;;9.54;100.00;104095.02;1878272;75;86553;-78
2021/12/18 08:00:28;;;;;;;67.03;60.83;;;;;;;9.38;100.00;104077.78;1934058;72;86398;-75
2021/12/18 08:06:12;;;;;;;67.77;61.73;;;;;;;9.54;100.00;104101.13;1984267;71;39592;-74
2021/12/18 08:18:26;;;;;;;72.53;66.33;;;;;;;9.57;100.00;104114.59;1804640;78;85725;-75
2021/12/18 08:24:11;;;;;;;74.63;68.23;;;;;;;9.59;100.00;104111.94;1802602;78;86465;-76
2021/12/18 08:29:53;;;;;;;73.03;66.73;;;;;;;9.54;100.00;104121.38;1837881;76;85441;-75
2021/12/18 08:35:38;;;;;;;65.60;59.70;;;;;;;9.62;100.00;104123.71;1915347;74;85504;-74
2021/12/18 08:41:23;;;;;;;70.90;64.87;;;;;;;9.59;100.00;104120.78;1980916;71;39563;-74
2021/12/18 08:47:08;;;;;;;67.43;61.83;;;;;;;9.67;100.00;104128.97;1844842;76;86153;-74
2021/12/18 08:52:54;;;;;;;68.87;62.97;;;;;;;9.63;100.00;104120.72;1806633;78;86656;-74
2021/12/18 08:58:39;;;;;;;66.80;61.17;;;;;;;9.70;100.00;104131.37;1910676;74;86341;-75
2021/12/18 09:04:23;;;;;;;73.50;67.30;;;;;;;9.73;100.00;104137.05;1980475;71;39786;-71
2021/12/18 09:10:10;;;;;;;74.67;67.67;;;;;;;9.77;100.00;104141.14;1835354;76;86133;-72
2021/12/18 09:15:54;;;;;;;74.87;68.37;;;;;;;9.65;100.00;104138.57;1795223;78;86801;-74
2021/12/18 09:21:39;;;;;;;73.57;66.67;;;;;;;9.65;100.00;104126.08;1905907;74;86532;-74
2021/12/18 09:27:23;;;;;;;71.10;64.80;;;;;;;9.74;100.00;104120.20;1975949;71;39609;-74
2021/12/18 09:33:06;;;;;;;70.00;64.00;;;;;;;9.72;100.00;104120.91;1877174;74;86262;-74
2021/12/18 09:38:50;;;;;;;80.40;73.73;;;;;;;9.76;100.00;104125.00;1883977;73;86205;-75
2021/12/18 09:44:37;;;;;;;74.37;68.10;;;;;;;9.80;100.00;104129.09;1907342;72;86423;-74
2021/12/18 09:50:26;;;;;;;81.17;74.87;;;;;;;9.74;100.00;104127.66;1985215;71;40110;-74
2021/12/18 09:56:10;;;;;;;84.73;77.83;;;;;;;9.79;100.00;104128.80;1979844;72;86092;-78
2021/12/18 10:01:54;;;;;;;87.90;80.77;;;;;;;9.79;100.00;104130.70;1807097;78;86492;-77
2021/12/18 10:07:43;;;;;;;84.33;77.60;;;;;;;9.82;100.00;104131.69;1887022;73;86324;-75
2021/12/18 10:13:28;;;;;;;86.57;79.40;;;;;;;9.91;100.00;104134.65;1903767;72;86186;-74
2021/12/18 10:19:29;;;;;;;81.60;75.33;;;;;;;10.08;100.00;104132.43;1984806;71;39549;-83
2021/12/18 10:25:17;;;;;;;82.53;75.83;;;;;;;10.16;100.00;104137.34;1981486;71;39436;-74
2021/12/18 10:31:08;;;;;;;85.73;79.07;;;;;;;10.15;100.00;104138.39;1823523;76;86322;-76
2021/12/18 10:40:46;;;;;;;82.03;75.80;;;;;;;10.00;100.00;104125.98;1921870;72;86049;-74
2021/12/18 10:43:17;;;;;;;82.65;76.05;;;;;;;9.96;100.00;104145.50;1881586;74;938763;-71
2021/12/18 10:49:04;;;;;;;79.87;73.27;;;;;;;10.05;100.00;104124.81;1829076;76;86082;-77
2021/12/18 10:58:11;;;;;;;88.70;81.23;;;;;;;10.08;100.00;104126.88;1999223;69;39550;-74
2021/12/18 11:00:46;;;;;;;86.93;79.83;;;;;;;10.04;100.00;104134.23;1925252;73;938971;-73
2021/12/18 11:03:29;;;;;;;85.92;78.87;;;;;;;10.08;100.00;104132.43;1837727;75;940839;-77
2021/12/18 11:09:46;;;;;;;83.47;76.67;;;;;;;10.22;100.00;104112.92;1927448;73;86195;-71
2021/12/18 11:15:26;;;;;;;78.90;72.70;;;;;;;10.26;100.00;104109.20;1859986;76;86728;-74
2021/12/18 11:21:11;;;;;;;75.03;69.03;;;;;;;10.39;100.00;104100.95;1809482;78;86301;-73
2021/12/18 11:27:05;;;;;;;74.00;68.33;;;;;;;10.59;100.00;104100.52;1852111;76;86937;-74
2021/12/18 11:32:54;;;;;;;74.03;68.03;;;;;;;10.35;100.00;104099.64;1894585;74;86285;-78
2021/12/18 11:38:39;;;;;;;76.10;70.20;;;;;;;10.37;100.00;104103.06;1915531;72;86882;-73
2021/12/18 11:44:34;;;;;;;69.93;64.43;;;;;;;10.27;100.00;104094.25;1945459;73;86561;-74
2021/12/18 11:50:47;;;;;;;71.70;66.23;;;;;;;10.25;100.00;104087.50;1883663;75;86858;-77
2021/12/18 11:56:49;;;;;;;67.40;62.27;;;;;;;10.31;100.00;104081.11;1927097;73;86325;-75
2021/12/18 12:02:55;;;;;;;72.27;67.07;;;;;;;10.31;100.00;104069.16;1872857;75;86520;-73
2021/12/18 12:08:51;;;;;;;70.63;65.33;;;;;;;10.42;100.00;104067.17;1873362;75;86335;-75
2021/12/18 12:14:39;;;;;;;67.83;62.73;;;;;;;10.45;100.00;104063.45;1906291;72;86524;-73
2021/12/18 12:20:39;;;;;;;69.03;64.03;;;;;;;10.36;100.00;104049.39;1950468;73;86586;-75
2021/12/18 12:26:25;;;;;;;65.37;60.67;;;;;;;10.50;100.00;104043.37;1979633;71;40495;-73
2021/12/18 12:32:12;;;;;;;65.23;60.23;;;;;;;10.46;100.00;104040.69;1823973;76;86381;-76
2021/12/18 12:37:57;;;;;;;64.23;59.33;;;;;;;10.42;100.00;104040.24;1808889;78;86331;-78
2021/12/18 12:43:55;;;;;;;69.30;63.90;;;;;;;10.47;100.00;104029.90;1859954;73;86412;-75
2021/12/18 12:49:40;;;;;;;64.30;59.30;;;;;;;10.39;100.00;104018.96;1922548;72;86199;-76
2021/12/18 12:55:29;;;;;;;67.20;61.87;;;;;;;10.40;100.00;104015.95;1972760;71;39566;-73
2021/12/18 13:01:14;;;;;;;66.10;60.77;;;;;;;10.42;100.00;104019.41;1981850;71;39606;-76
2021/12/18 13:07:07;;;;;;;66.67;61.70;;;;;;;10.53;100.00;104012.90;1838617;76;86770;-75
2021/12/18 13:13:02;;;;;;;64.03;59.00;;;;;;;10.52;100.00;104007.91;1900089;74;85579;-74
2021/12/18 13:19:01;;;;;;;65.13;60.33;;;;;;;10.46;100.00;104008.19;1877156;75;86473;-73
2021/12/18 13:24:48;;;;;;;64.07;59.20;;;;;;;10.46;100.00;104008.72;1871910;75;86839;-76
2021/12/18 13:30:32;;;;;;;63.63;59.00;;;;;;;10.50;100.00;103991.95;1940035;72;86500;-76
2021/12/18 13:36:19;;;;;;;66.23;61.03;;;;;;;10.46;100.00;103984.56;1945990;71;39800;-74
2021/12/18 13:42:11;;;;;;;66.67;61.50;;;;;;;10.48;100.00;103982.98;1847347;76;86336;-73
2021/12/18 13:48:07;;;;;;;69.53;64.13;;;;;;;10.51;100.00;103983.94;1826898;76;85735;-74
2021/12/18 13:53:56;;;;;;;70.03;64.63;;;;;;;10.48;100.00;103978.25;1894092;74;86469;-75
2021/12/18 13:59:43;;;;;;;69.97;64.17;;;;;;;10.55;100.00;103974.12;1846724;76;86199;-73
2021/12/18 14:05:27;;;;;;;68.37;62.97;;;;;;;10.62;100.00;103974.98;1915232;74;86675;-74
2021/12/18 14:11:15;;;;;;;68.13;62.83;;;;;;;10.41;100.00;103969.56;1796069;78;85568;-77
2021/12/18 14:17:06;;;;;;;67.73;62.50;;;;;;;10.45;100.00;103967.55;1844344;76;86480;-75
2021/12/18 14:22:53;;;;;;;67.83;62.50;;;;;;;10.34;100.00;103958.97;1909440;73;85461;-76
2021/12/18 14:28:37;;;;;;;68.90;63.63;;;;;;;10.19;100.00;103964.67;1911106;74;86212;-77
2021/12/18 14:34:41;;;;;;;70.77;65.13;;;;;;;10.28;100.00;103977.85;1913347;72;86465;-74
2021/12/18 14:40:29;;;;;;;74.87;69.47;;;;;;;10.25;100.00;103978.27;1941819;73;86412;-72
2021/12/18 14:46:20;;;;;;;70.30;64.90;;;;;;;10.24;100.00;103984.36;1982792;71;39545;-78
2021/12/18 14:52:07;;;;;;;73.67;68.27;;;;;;;10.19;100.00;103980.48;1950438;73;85475;-73
2021/12/18 14:58:08;;;;;;;77.67;71.77;;;;;;;10.03;100.00;103965.85;1848542;76;86451;-73
2021/12/18 15:03:58;;;;;;;76.17;70.23;;;;;;;10.12;100.00;103979.56;1830550;76;85887;-76
2021/12/18 15:09:57;;;;;;;78.80;72.90;;;;;;;10.09;100.00;103979.98;1830333;77;86831;-73
2021/12/18 15:15:43;;;;;;;78.60;72.57;;;;;;;10.03;100.00;103978.35;1914902;73;86467;-75
2021/12/18 15:21:30;;;;;;;75.73;69.97;;;;;;;10.11;100.00;103976.45;1939903;73;85589;-73
2021/12/18 15:27:15;;;;;;;77.47;71.73;;;;;;;10.03;100.00;103971.94;1978488;71;39716;-76
2021/12/18 15:32:58;;;;;;;80.97;74.40;;;;;;;10.12;100.00;103980.95;1879199;74;85385;-78
2021/12/18 15:38:42;;;;;;;81.77;75.73;;;;;;;10.12;100.00;103985.13;1910514;73;86754;-73
2021/12/18 15:44:28;;;;;;;76.20;70.20;;;;;;;9.98;100.00;103986.44;1809037;77;86057;-73
2021/12/18 15:50:13;;;;;;;77.90;72.10;;;;;;;9.96;100.00;103985.80;1798312;78;86438;-73
2021/12/18 15:55:58;;;;;;;68.43;62.73;;;;;;;9.92;100.00;103983.11;1807506;78;86222;-78
2021/12/18 16:01:43;;;;;;;72.30;66.37;;;;;;;9.95;100.00;103998.49;1827284;78;86726;-76
2021/12/18 16:07:29;;;;;;;69.83;64.23;;;;;;;9.90;100.00;103990.77;1983447;71;39737;-75
2021/12/18 16:13:14;;;;;;;67.97;62.37;;;;;;;9.90;100.00;103989.91;1823514;78;86516;-76
2021/12/18 16:18:59;;;;;;;70.70;65.13;;;;;;;9.83;100.00;103989.88;1882672;74;86715;-76
2021/12/18 16:24:43;;;;;;;72.27;66.47;;;;;;;9.79;100.00;103989.97;1873100;75;86468;-78
2021/12/18 16:30:27;;;;;;;73.90;67.93;;;;;;;9.80;100.00;103998.59;1985962;71;40373;-73
2021/12/18 16:36:16;;;;;;;68.43;62.50;;;;;;;9.86;100.00;103996.93;1928594;72;86074;-74
2021/12/18 16:42:01;;;;;;;69.30;63.57;;;;;;;9.76;100.00;104000.59;1860047;75;86382;-77
2021/12/18 16:47:46;;;;;;;67.87;62.07;;;;;;;9.79;100.00;104003.84;1884669;74;85618;-73
2021/12/18 16:53:30;;;;;;;64.97;59.37;;;;;;;9.86;100.00;104010.30;1919765;72;86461;-78
2021/12/18 16:59:15;;;;;;;65.43;59.83;;;;;;;9.88;100.00;104001.77;1985281;71;39702;-76
2021/12/18 17:04:59;;;;;;;64.23;58.93;;;;;;;9.80;100.00;103993.05;1887516;74;86877;-77
2021/12/18 17:10:44;;;;;;;63.30;57.87;;;;;;;9.71;100.00;103991.52;1885364;74;86672;-77
2021/12/18 17:16:28;;;;;;;64.93;59.47;;;;;;;9.68;100.00;103993.28;1938516;73;86450;-74
2021/12/18 17:22:12;;;;;;;63.57;58.13;;;;;;;9.72;100.00;103990.43;1796014;78;86348;-75
2021/12/18 17:27:56;;;;;;;64.23;58.67;;;;;;;9.69;100.00;103997.78;1823221;77;86409;-73
2021/12/18 17:33:40;;;;;;;65.63;60.10;;;;;;;9.67;100.00;103997.67;1916381;72;86263;-75
2021/12/18 17:39:28;;;;;;;65.13;59.27;;;;;;;9.71;100.00;104002.63;1982958;71;40161;-77
2021/12/18 17:45:13;;;;;;;64.47;58.80;;;;;;;9.69;100.00;104001.09;1798770;78;85307;-75
2021/12/18 17:51:00;;;;;;;65.07;59.37;;;;;;;9.82;100.00;104008.98;1882864;74;86591;-76
2021/12/18 17:56:45;;;;;;;62.77;57.30;;;;;;;9.78;100.00;104017.39;1884648;75;86561;-74
2021/12/18 18:02:31;;;;;;;61.53;56.13;;;;;;;9.77;100.00;104021.22;1945979;72;86153;-75
2021/12/18 18:08:19;;;;;;;63.10;57.60;;;;;;;9.74;100.00;104024.94;1860897;74;39629;-74
2021/12/18 18:13:59;;;;;;;64.07;58.47;;;;;;;9.68;100.00;104022.44;1841802;75;86164;-74
2021/12/18 18:19:44;;;;;;;61.80;56.10;;;;;;;9.65;100.00;104020.59;1854805;76;86335;-74
2021/12/18 18:25:29;;;;;;;63.77;57.77;;;;;;;9.57;100.00;104025.25;1906874;72;87044;-76
2021/12/18 18:31:14;;;;;;;61.47;55.77;;;;;;;9.58;100.00;104031.11;1811894;78;86640;-76
2021/12/18 18:40:04;;;;;;;64.53;58.53;;;;;;;9.58;100.00;104028.89;1847343;75;86031;-76
2021/12/18 18:45:56;;;;;;;63.23;57.43;;;;;;;9.57;100.00;104030.80;1955771;73;86186;-78
2021/12/18 18:51:34;;;;;;;64.17;58.07;;;;;;;9.44;100.00;104037.63;1994479;70;86004;-82
2021/12/18 18:57:21;;;;;;;65.07;59.03;;;;;;;9.47;100.00;104039.13;1977391;69;39673;-83
2021/12/18 19:03:12;;;;;;;64.90;58.70;;;;;;;9.57;100.00;104041.05;1766931;78;86827;-82
2021/12/18 19:08:57;;;;;;;64.57;58.53;;;;;;;9.49;100.00;104050.91;1811046;78;85783;-76
2021/12/18 19:14:41;;;;;;;65.67;59.77;;;;;;;9.51;100.00;104047.38;1923300;72;86521;-75
2021/12/18 19:20:28;;;;;;;67.93;61.63;;;;;;;9.46;100.00;104042.95;1986829;71;39605;-75
2021/12/18 19:26:13;;;;;;;64.43;58.57;;;;;;;9.49;100.00;104055.06;2086221;68;39511;-84
2021/12/18 19:31:57;;;;;;;63.20;57.53;;;;;;;9.58;100.00;104059.42;1808498;78;86265;-83
2021/12/18 19:37:49;;;;;;;65.63;59.47;;;;;;;9.54;100.00;104050.61;1832511;78;85593;-74
2021/12/18 19:43:35;;;;;;;65.33;59.33;;;;;;;9.62;100.00;104048.24;1913508;72;85795;-77
2021/12/18 19:49:22;;;;;;;64.67;58.63;;;;;;;9.52;100.00;104053.27;1938730;71;39582;-74
2021/12/18 19:55:07;;;;;;;63.47;57.13;;;;;;;9.49;100.00;104046.22;1979786;69;85580;-77
2021/12/18 20:00:55;;;;;;;60.90;55.27;;;;;;;9.48;100.00;104056.11;1887469;74;86799;-75
2021/12/18 20:06:41;;;;;;;65.37;59.03;;;;;;;9.48;100.00;104053.34;1939400;73;86274;-78
2021/12/18 20:12:25;;;;;;;64.40;58.33;;;;;;;9.51;100.00;104058.48;1986697;70;39614;-77
2021/12/18 20:18:12;;;;;;;64.60;58.27;;;;;;;9.45;100.00;104059.30;1870861;74;85597;-72
2021/12/18 20:23:55;;;;;;;67.47;60.80;;;;;;;9.51;100.00;104062.64;1883688;75;86921;-85
2021/12/18 20:29:39;;;;;;;63.27;57.33;;;;;;;9.38;100.00;104065.30;1906736;73;86697;-78
2021/12/18 20:35:26;;;;;;;65.17;59.07;;;;;;;9.35;100.00;104058.23;1985617;71;39555;-72
2021/12/18 20:41:11;;;;;;;64.40;58.20;;;;;;;9.40;100.00;104065.45;1834874;76;86302;-75
2021/12/18 20:46:56;;;;;;;67.53;61.17;;;;;;;9.37;100.00;104064.98;1817886;78;86809;-81
2021/12/18 20:52:42;;;;;;;68.97;62.00;;;;;;;9.40;100.00;104057.65;1870485;73;86488;-82
2021/12/18 20:58:31;;;;;;;66.23;59.70;;;;;;;9.36;100.00;104060.48;1914008;74;86679;-74
2021/12/18 21:04:18;;;;;;;68.40;61.70;;;;;;;9.29;100.00;104064.57;1985124;71;39558;-77
2021/12/18 21:10:03;;;;;;;66.67;60.17;;;;;;;9.35;100.00;104061.55;1848891;76;86619;-76
2021/12/18 21:16:05;;;;;;;69.60;62.70;;;;;;;9.41;100.00;104064.92;1804402;78;86067;-74
2021/12/18 21:21:56;;;;;;;68.77;61.93;;;;;;;9.34;100.00;104052.88;1870586;74;86631;-73
2021/12/18 21:27:42;;;;;;;68.30;61.43;;;;;;;9.38;100.00;104063.38;1963521;72;86762;-85
2021/12/18 21:33:27;;;;;;;66.10;59.37;;;;;;;9.41;100.00;104062.97;1985848;71;40349;-73
2021/12/18 21:39:16;;;;;;;66.07;59.60;;;;;;;9.37;100.00;104060.83;1917357;73;86436;-83
2021/12/18 21:45:02;;;;;;;67.97;61.27;;;;;;;9.36;100.00;104063.27;1831666;76;86486;-76
2021/12/18 21:50:47;;;;;;;68.27;61.57;;;;;;;9.30;100.00;104058.50;1882647;73;86263;-76
2021/12/18 21:56:24;;;;;;;69.30;62.60;;;;;;;9.27;100.00;104056.98;1940936;71;39629;-85
2021/12/18 22:02:11;;;;;;;68.53;61.93;;;;;;;9.35;100.00;104042.12;1881211;74;86556;-74
2021/12/18 22:07:57;;;;;;;67.43;60.87;;;;;;;9.26;100.00;104053.02;1801405;78;86229;-73
2021/12/18 22:13:42;;;;;;;71.00;64.00;;;;;;;9.37;100.00;104049.73;1942392;73;86687;-85
2021/12/18 22:19:27;;;;;;;68.80;62.00;;;;;;;9.35;100.00;104040.20;1973212;71;39700;-82
2021/12/18 22:25:12;;;;;;;70.73;63.87;;;;;;;9.33;100.00;104035.89;1848440;76;86294;-82
2021/12/18 22:30:55;;;;;;;67.23;60.77;;;;;;;9.31;100.00;104034.73;1829802;76;86139;-81
2021/12/18 22:36:40;;;;;;;72.40;65.20;;;;;;;9.36;100.00;104039.68;1914263;72;86431;-77
2021/12/18 22:42:25;;;;;;;69.93;63.20;;;;;;;9.30;100.00;104041.33;1976305;70;39539;-84
2021/12/18 22:48:10;;;;;;;69.97;63.30;;;;;;;9.17;100.00;104038.42;1836402;76;86394;-76
2021/12/18 22:53:55;;;;;;;70.37;63.27;;;;;;;9.24;100.00;104034.34;1832930;77;86202;-73
2021/12/18 22:59:40;;;;;;;74.00;66.33;;;;;;;9.24;100.00;104031.02;1912729;74;86687;-74
2021/12/18 23:05:27;;;;;;;76.10;68.60;;;;;;;9.17;100.00;104029.23;1929069;71;39560;-73
2021/12/18 23:11:17;;;;;;;79.20;71.73;;;;;;;9.28;100.00;104036.52;1877424;74;86122;-73
2021/12/18 23:17:16;;;;;;;80.30;72.97;;;;;;;9.14;100.00;104022.19;1831355;76;86437;-73
2021/12/18 23:22:51;;;;;;;82.87;75.13;;;;;;;9.16;100.00;104016.45;1870013;75;85815;-72
2021/12/18 23:28:35;;;;;;;81.13;73.97;;;;;;;9.16;100.00;104009.52;1848662;76;85642;-84
2021/12/18 23:34:19;;;;;;;81.90;74.37;;;;;;;9.17;100.00;104009.83;1986708;70;39632;-76
2021/12/18 23:40:05;;;;;;;82.53;75.13;;;;;;;9.10;100.00;104011.16;1840488;76;86504;-76
2021/12/18 23:51:53;;;;;;;84.33;76.77;;;;;;;9.25;100.00;104005.52;1867018;75;85720;-76
2021/12/18 23:57:38;;;;;;;83.30;75.83;;;;;;;9.11;100.00;104004.01;1911922;73;85371;-75
